Time;durP1;ratioP1;P1;durP2;ratioP2;P2;SDS_P1;SDS_P2;PMS_P1;PMS_P2;Temp;Humidity;BMP_temperature;BMP_pressure;BME280_temperature;BME280_humidity;BME280_pressure;Samples;Min_cycle;Max_cycle;Signal;HPM_P1;HPM_P2
2023/06/09 00:00:47;;;;;;;21.13;6.55;;;;;;;;;;4929594;28;20043;-67
2023/06/09 00:03:16;;;;;;;23.17;6.53;;;;;;;;;;4930830;28;20044;-67
2023/06/09 00:05:42;;;;;;;22.35;6.75;;;;;;;;;;4931634;28;20570;-67
2023/06/09 00:08:08;;;;;;;24.98;6.93;;;;;;;;;;4930423;28;20046;-70
2023/06/09 00:10:34;;;;;;;20.52;6.03;;;;;;;;;;4916055;28;20077;-70
2023/06/09 00:13:00;;;;;;;21.33;6.10;;;;;;;;;;4929625;28;20078;-71
2023/06/09 00:15:27;;;;;;;22.20;8.15;;;;;;;;;;4930700;28;20044;-70
2023/06/09 00:17:53;;;;;;;19.15;6.15;;;;;;;;;;4910781;28;20166;-71
2023/06/09 00:20:20;;;;;;;25.27;6.72;;;;;;;;;;4929494;28;20121;-71
2023/06/09 00:22:48;;;;;;;19.73;6.32;;;;;;;;;;4910925;28;20094;-70
2023/06/09 00:25:15;;;;;;;30.45;7.00;;;;;;;;;;4894178;28;20126;-70
2023/06/09 00:27:43;;;;;;;24.75;6.63;;;;;;;;;;4927806;28;20166;-71
2023/06/09 00:30:10;;;;;;;20.00;7.00;;;;;;;;;;4929044;28;20127;-71
2023/06/09 00:32:36;;;;;;;17.88;5.65;;;;;;;;;;4927278;28;20530;-70
2023/06/09 00:35:03;;;;;;;16.38;6.25;;;;;;;;;;4929355;28;20505;-71
2023/06/09 00:37:30;;;;;;;22.10;6.45;;;;;;;;;;4927241;28;20043;-70
2023/06/09 00:39:57;;;;;;;25.83;7.70;;;;;;;;;;4929241;28;20118;-70
2023/06/09 00:42:23;;;;;;;26.55;7.20;;;;;;;;;;4914518;28;20061;-71
2023/06/09 00:44:49;;;;;;;21.70;7.30;;;;;;;;;;4927779;28;20047;-71
2023/06/09 00:47:16;;;;;;;22.63;7.35;;;;;;;;;;4927497;28;21676;-71
2023/06/09 00:49:46;;;;;;;22.92;7.03;;;;;;;;;;4925827;28;20069;-70
2023/06/09 00:52:12;;;;;;;22.55;7.32;;;;;;;;;;4928501;28;20043;-71
2023/06/09 00:54:38;;;;;;;27.52;8.50;;;;;;;;;;4913250;28;20066;-70
2023/06/09 00:57:05;;;;;;;28.48;6.93;;;;;;;;;;4929889;28;20047;-71
2023/06/09 00:59:33;;;;;;;29.48;6.88;;;;;;;;;;4928008;28;20070;-71
2023/06/09 01:01:59;;;;;;;20.30;7.70;;;;;;;;;;4912536;28;20051;-72
2023/06/09 01:04:25;;;;;;;25.30;7.10;;;;;;;;;;4930203;28;20779;-70
2023/06/09 01:06:56;;;;;;;19.75;6.03;;;;;;;;;;4932408;28;20075;-70
2023/06/09 01:09:45;;;;;;;20.67;6.97;;;;;;;;;;4915456;28;20059;-71
2023/06/09 01:12:26;;;;;;;29.67;7.78;;;;;;;;;;4924423;28;20062;-71
2023/06/09 01:15:03;;;;;;;24.55;7.22;;;;;;;;;;4928396;28;20082;-71
2023/06/09 01:17:32;;;;;;;23.50;6.65;;;;;;;;;;4926910;28;20724;-70
2023/06/09 01:20:05;;;;;;;27.10;6.82;;;;;;;;;;4926209;28;20075;-70
2023/06/09 01:22:42;;;;;;;24.08;6.95;;;;;;;;;;4929700;28;20039;-71
2023/06/09 01:25:17;;;;;;;18.88;7.15;;;;;;;;;;4911733;28;20062;-70
2023/06/09 01:27:44;;;;;;;25.88;7.40;;;;;;;;;;4916207;28;20134;-70
2023/06/09 01:30:11;;;;;;;18.80;6.60;;;;;;;;;;4910055;28;20559;-70
2023/06/09 01:32:38;;;;;;;25.80;7.30;;;;;;;;;;4927930;28;20043;-70
2023/06/09 01:35:05;;;;;;;21.33;6.75;;;;;;;;;;4927519;28;20039;-70
2023/06/09 01:37:31;;;;;;;18.08;6.60;;;;;;;;;;4910966;28;20074;-70
2023/06/09 01:39:58;;;;;;;30.98;7.18;;;;;;;;;;4927950;28;20153;-71
2023/06/09 01:42:25;;;;;;;23.65;6.68;;;;;;;;;;4931202;28;20055;-71
2023/06/09 01:44:51;;;;;;;27.85;6.78;;;;;;;;;;4926964;28;20069;-71
2023/06/09 01:47:19;;;;;;;26.88;7.80;;;;;;;;;;4930718;28;20058;-70
2023/06/09 01:49:45;;;;;;;24.30;7.57;;;;;;;;;;4930652;28;20074;-70
2023/06/09 01:52:24;;;;;;;19.73;7.28;;;;;;;;;;4928780;28;20054;-70
2023/06/09 01:54:55;;;;;;;23.08;7.35;;;;;;;;;;4930150;28;20487;-71
2023/06/09 01:57:26;;;;;;;30.10;8.02;;;;;;;;;;4918443;28;20051;-70
2023/06/09 01:59:54;;;;;;;28.48;7.50;;;;;;;;;;4913921;28;20083;-70
2023/06/09 02:02:21;;;;;;;27.50;7.93;;;;;;;;;;4926439;28;20106;-70
2023/06/09 02:04:49;;;;;;;25.65;8.45;;;;;;;;;;4923611;28;20054;-70
2023/06/09 02:07:16;;;;;;;25.23;7.93;;;;;;;;;;4926286;28;20048;-71
2023/06/09 02:09:44;;;;;;;25.88;7.45;;;;;;;;;;4924972;28;20130;-71
2023/06/09 02:12:10;;;;;;;24.88;7.95;;;;;;;;;;4925032;28;20035;-71
2023/06/09 02:14:36;;;;;;;26.75;8.27;;;;;;;;;;4924866;28;20474;-71
2023/06/09 02:17:03;;;;;;;20.80;7.32;;;;;;;;;;4927643;28;20050;-70
2023/06/09 02:19:30;;;;;;;26.77;7.88;;;;;;;;;;4924753;28;20054;-70
2023/06/09 02:21:57;;;;;;;27.42;7.82;;;;;;;;;;4892534;28;20146;-70
2023/06/09 02:24:27;;;;;;;19.17;8.10;;;;;;;;;;4925741;28;20054;-70
2023/06/09 02:26:54;;;;;;;22.67;8.32;;;;;;;;;;4924130;28;20051;-71
2023/06/09 02:29:20;;;;;;;26.27;8.00;;;;;;;;;;4905930;28;20496;-70
2023/06/09 02:31:46;;;;;;;27.50;9.65;;;;;;;;;;4907903;28;20079;-70
2023/06/09 02:34:13;;;;;;;24.60;8.65;;;;;;;;;;4909216;28;20507;-70
2023/06/09 02:36:42;;;;;;;26.13;9.20;;;;;;;;;;4911151;28;20043;-71
2023/06/09 02:39:08;;;;;;;35.42;8.80;;;;;;;;;;4925467;28;20047;-71
2023/06/09 02:41:35;;;;;;;20.40;7.65;;;;;;;;;;4925042;28;20405;-70
2023/06/09 02:44:02;;;;;;;27.25;9.32;;;;;;;;;;4923208;28;20054;-70
2023/06/09 02:46:29;;;;;;;21.40;8.25;;;;;;;;;;4926968;28;20508;-70
2023/06/09 02:48:56;;;;;;;20.20;8.63;;;;;;;;;;4923868;28;20062;-70
2023/06/09 02:51:22;;;;;;;27.95;7.95;;;;;;;;;;4927145;28;20047;-70
2023/06/09 02:53:48;;;;;;;25.13;9.80;;;;;;;;;;4908503;28;20053;-71
2023/06/09 02:56:14;;;;;;;28.85;9.43;;;;;;;;;;4923825;28;20047;-71
2023/06/09 02:58:41;;;;;;;37.13;10.07;;;;;;;;;;4925220;28;20491;-71
2023/06/09 03:01:07;;;;;;;23.95;8.40;;;;;;;;;;4910208;28;20111;-70
2023/06/09 03:03:34;;;;;;;20.75;8.30;;;;;;;;;;4924512;28;20165;-70
2023/06/09 03:06:00;;;;;;;24.50;8.38;;;;;;;;;;4926831;28;20059;-70
2023/06/09 03:08:26;;;;;;;25.02;8.77;;;;;;;;;;4909386;28;20582;-70
2023/06/09 03:10:53;;;;;;;30.98;9.48;;;;;;;;;;4925942;28;20062;-70
2023/06/09 03:13:19;;;;;;;27.92;8.75;;;;;;;;;;4904169;28;20070;-70
2023/06/09 03:15:45;;;;;;;23.27;8.30;;;;;;;;;;4924907;28;20046;-70
2023/06/09 03:18:13;;;;;;;25.38;8.23;;;;;;;;;;4921646;28;20291;-70
2023/06/09 03:20:39;;;;;;;30.98;9.15;;;;;;;;;;4908166;28;20035;-70
2023/06/09 03:23:07;;;;;;;26.65;8.88;;;;;;;;;;4923617;28;20039;-70
2023/06/09 03:25:33;;;;;;;22.58;7.93;;;;;;;;;;4911160;28;20684;-70
2023/06/09 03:28:00;;;;;;;30.65;8.85;;;;;;;;;;4926294;28;20086;-70
2023/06/09 03:30:26;;;;;;;23.42;8.25;;;;;;;;;;4918241;28;20058;-72
2023/06/09 03:32:52;;;;;;;28.65;8.55;;;;;;;;;;4922704;28;20215;-72
2023/06/09 03:35:18;;;;;;;23.25;8.18;;;;;;;;;;4911909;28;20039;-72
2023/06/09 03:37:44;;;;;;;27.05;8.18;;;;;;;;;;4928628;28;20051;-71
2023/06/09 03:40:11;;;;;;;27.85;7.65;;;;;;;;;;4929436;28;20057;-72
2023/06/09 03:42:38;;;;;;;23.60;8.65;;;;;;;;;;4912551;28;20043;-72
2023/06/09 03:45:04;;;;;;;23.75;8.27;;;;;;;;;;4910345;28;20557;-72
2023/06/09 03:47:30;;;;;;;25.42;9.18;;;;;;;;;;4926021;28;20066;-72
2023/06/09 03:49:56;;;;;;;25.70;9.00;;;;;;;;;;4928774;28;20124;-72
2023/06/09 03:52:23;;;;;;;29.70;8.48;;;;;;;;;;4927643;28;20043;-72
2023/06/09 03:54:49;;;;;;;26.85;8.95;;;;;;;;;;4908163;28;20088;-72
2023/06/09 03:57:15;;;;;;;28.42;8.80;;;;;;;;;;4928645;28;20059;-72
2023/06/09 03:59:41;;;;;;;30.05;8.77;;;;;;;;;;4914877;28;20048;-72
2023/06/09 04:02:07;;;;;;;25.55;8.20;;;;;;;;;;4926916;28;20139;-73
2023/06/09 04:04:33;;;;;;;30.17;9.18;;;;;;;;;;4928246;28;20043;-72
2023/06/09 04:06:59;;;;;;;22.58;8.15;;;;;;;;;;4932727;28;20053;-72
2023/06/09 04:09:27;;;;;;;31.70;10.85;;;;;;;;;;4928671;28;20473;-72
2023/06/09 04:11:53;;;;;;;27.15;8.32;;;;;;;;;;4929954;28;20073;-71
2023/06/09 04:14:19;;;;;;;30.00;9.35;;;;;;;;;;4933449;28;20039;-71
2023/06/09 04:16:45;;;;;;;23.15;9.00;;;;;;;;;;4926462;28;20040;-71
2023/06/09 04:19:11;;;;;;;21.83;9.07;;;;;;;;;;4908696;28;20130;-71
2023/06/09 04:21:42;;;;;;;27.42;9.73;;;;;;;;;;4924324;28;20540;-71
2023/06/09 04:24:09;;;;;;;20.75;8.02;;;;;;;;;;4914637;28;20055;-72
2023/06/09 04:26:38;;;;;;;20.70;9.13;;;;;;;;;;4908083;28;20094;-72
2023/06/09 04:29:09;;;;;;;28.80;9.10;;;;;;;;;;4909269;28;20134;-71
2023/06/09 04:31:37;;;;;;;24.90;9.05;;;;;;;;;;4909801;28;20660;-72
2023/06/09 04:34:10;;;;;;;24.80;8.98;;;;;;;;;;4909837;28;20934;-72
2023/06/09 04:36:40;;;;;;;37.05;9.57;;;;;;;;;;4896228;28;20051;-71
2023/06/09 04:39:07;;;;;;;27.60;9.20;;;;;;;;;;4894464;28;20047;-71
2023/06/09 04:41:33;;;;;;;30.45;9.05;;;;;;;;;;4912013;28;20047;-72
2023/06/09 04:44:05;;;;;;;31.08;9.27;;;;;;;;;;4911682;28;20070;-72
2023/06/09 04:46:37;;;;;;;26.60;9.23;;;;;;;;;;4924553;28;20094;-72
2023/06/09 04:49:10;;;;;;;26.02;8.35;;;;;;;;;;4909505;28;20054;-72
2023/06/09 04:51:49;;;;;;;24.42;9.15;;;;;;;;;;4930519;28;20058;-71
2023/06/09 04:54:16;;;;;;;23.92;9.18;;;;;;;;;;4912168;28;20071;-72
2023/06/09 04:56:43;;;;;;;32.90;9.98;;;;;;;;;;4909552;28;21303;-71
2023/06/09 04:59:10;;;;;;;30.70;9.75;;;;;;;;;;4915213;28;20475;-72
2023/06/09 05:01:37;;;;;;;28.75;8.52;;;;;;;;;;4915443;28;20130;-71
2023/06/09 05:04:03;;;;;;;22.00;7.75;;;;;;;;;;4934964;28;20043;-71
2023/06/09 05:06:30;;;;;;;24.67;9.45;;;;;;;;;;4914733;28;20137;-72
2023/06/09 05:08:57;;;;;;;32.35;8.93;;;;;;;;;;4915053;28;20078;-71
2023/06/09 05:11:23;;;;;;;29.38;8.77;;;;;;;;;;4916492;28;20504;-71
2023/06/09 05:13:49;;;;;;;30.92;8.48;;;;;;;;;;4916846;28;20042;-72
2023/06/09 05:16:15;;;;;;;33.45;9.07;;;;;;;;;;4917051;28;20039;-72
2023/06/09 05:18:44;;;;;;;33.63;9.85;;;;;;;;;;4937070;28;20043;-72
2023/06/09 05:21:12;;;;;;;29.73;8.68;;;;;;;;;;4935319;28;20044;-71
2023/06/09 05:23:38;;;;;;;23.50;9.30;;;;;;;;;;4940009;28;20235;-71
2023/06/09 05:26:04;;;;;;;29.80;8.50;;;;;;;;;;4922606;28;20047;-71
2023/06/09 05:28:30;;;;;;;29.10;8.48;;;;;;;;;;4940623;28;20054;-73
2023/06/09 05:30:56;;;;;;;28.65;8.80;;;;;;;;;;4924391;28;20058;-72
2023/06/09 05:33:22;;;;;;;27.00;9.68;;;;;;;;;;4929188;28;20069;-72
2023/06/09 05:35:49;;;;;;;27.42;9.20;;;;;;;;;;4922326;28;20713;-72
2023/06/09 05:38:15;;;;;;;26.90;9.15;;;;;;;;;;4940703;28;20063;-72
2023/06/09 05:40:41;;;;;;;36.70;10.70;;;;;;;;;;4946530;28;20145;-72
2023/06/09 05:43:08;;;;;;;29.02;9.02;;;;;;;;;;4918325;28;20062;-72
2023/06/09 05:45:34;;;;;;;33.42;9.23;;;;;;;;;;4914632;28;20128;-72
2023/06/09 05:48:00;;;;;;;29.35;9.13;;;;;;;;;;4912441;28;20043;-72
2023/06/09 05:50:26;;;;;;;25.80;8.68;;;;;;;;;;4925673;28;21794;-72
2023/06/09 05:52:52;;;;;;;36.55;9.88;;;;;;;;;;4927505;28;20051;-72
2023/06/09 05:55:19;;;;;;;30.40;8.95;;;;;;;;;;4912458;28;20129;-72
2023/06/09 05:57:45;;;;;;;33.38;9.48;;;;;;;;;;4927365;28;20391;-74
2023/06/09 06:00:12;;;;;;;26.08;8.30;;;;;;;;;;4906332;28;20059;-72
2023/06/09 06:02:42;;;;;;;30.70;9.15;;;;;;;;;;4929683;28;20500;-72
2023/06/09 06:05:09;;;;;;;22.40;8.45;;;;;;;;;;4931537;28;20069;-72
2023/06/09 06:07:36;;;;;;;25.48;9.30;;;;;;;;;;4917465;28;20055;-72
2023/06/09 06:10:06;;;;;;;23.48;8.00;;;;;;;;;;4913736;28;20051;-72
2023/06/09 06:12:35;;;;;;;27.40;8.50;;;;;;;;;;4915377;28;20051;-73
2023/06/09 06:15:01;;;;;;;25.20;7.75;;;;;;;;;;4926992;28;20214;-73
2023/06/09 06:17:27;;;;;;;21.35;8.10;;;;;;;;;;4926067;28;20329;-72
2023/06/09 06:19:54;;;;;;;30.40;9.25;;;;;;;;;;4915243;28;20051;-73
2023/06/09 06:22:20;;;;;;;19.95;7.60;;;;;;;;;;4916954;28;20069;-73
2023/06/09 06:24:46;;;;;;;21.17;7.57;;;;;;;;;;4915001;28;20055;-72
2023/06/09 06:27:12;;;;;;;20.33;7.93;;;;;;;;;;4927257;28;20583;-72
2023/06/09 06:29:41;;;;;;;25.25;7.32;;;;;;;;;;4914098;28;20070;-72
2023/06/09 06:32:08;;;;;;;22.65;7.38;;;;;;;;;;4910260;28;20309;-73
2023/06/09 06:34:34;;;;;;;16.60;7.70;;;;;;;;;;4924387;28;20128;-72
2023/06/09 06:37:00;;;;;;;21.75;7.97;;;;;;;;;;4907499;28;20074;-72
2023/06/09 06:39:26;;;;;;;23.08;8.32;;;;;;;;;;4931902;28;20783;-72
2023/06/09 06:41:53;;;;;;;27.20;7.68;;;;;;;;;;4932885;28;20134;-72
2023/06/09 06:44:20;;;;;;;29.00;8.38;;;;;;;;;;4915463;28;20053;-72
2023/06/09 06:46:46;;;;;;;19.92;7.32;;;;;;;;;;4912421;28;20676;-72
2023/06/09 06:49:12;;;;;;;27.40;7.90;;;;;;;;;;4922136;28;20082;-72
2023/06/09 06:51:38;;;;;;;17.98;7.60;;;;;;;;;;4927087;28;20398;-72
2023/06/09 06:54:04;;;;;;;22.55;7.57;;;;;;;;;;4913676;28;20441;-72
2023/06/09 06:56:30;;;;;;;21.45;8.02;;;;;;;;;;4924891;28;20043;-72
2023/06/09 06:58:56;;;;;;;21.58;8.02;;;;;;;;;;4907652;28;20094;-72
2023/06/09 07:01:24;;;;;;;22.33;7.38;;;;;;;;;;4932082;28;20404;-72
2023/06/09 07:03:50;;;;;;;35.83;8.13;;;;;;;;;;4912842;28;20204;-72
2023/06/09 07:06:17;;;;;;;20.55;8.02;;;;;;;;;;4915836;28;20087;-73
2023/06/09 07:08:43;;;;;;;20.58;7.93;;;;;;;;;;4929829;28;20570;-72
2023/06/09 07:11:10;;;;;;;18.40;7.20;;;;;;;;;;4914587;28;20142;-72
2023/06/09 07:13:36;;;;;;;24.70;8.80;;;;;;;;;;4918614;28;20376;-72
2023/06/09 07:16:02;;;;;;;20.50;8.00;;;;;;;;;;4907468;28;20602;-72
2023/06/09 07:18:29;;;;;;;27.45;8.05;;;;;;;;;;4928273;28;20117;-72
2023/06/09 07:20:55;;;;;;;25.08;8.02;;;;;;;;;;4917464;28;20117;-72
2023/06/09 07:23:21;;;;;;;22.45;8.00;;;;;;;;;;4925031;28;20047;-71
2023/06/09 07:25:47;;;;;;;16.88;7.38;;;;;;;;;;4927264;28;20035;-72
2023/06/09 07:28:13;;;;;;;16.42;7.00;;;;;;;;;;4925708;28;20039;-72
2023/06/09 07:30:42;;;;;;;18.33;7.75;;;;;;;;;;4909147;28;20083;-72
2023/06/09 07:33:09;;;;;;;26.58;7.80;;;;;;;;;;4910239;28;20078;-72
2023/06/09 07:35:35;;;;;;;22.63;7.28;;;;;;;;;;4905085;28;20498;-73
2023/06/09 07:38:01;;;;;;;15.57;7.35;;;;;;;;;;4905479;28;20142;-72
2023/06/09 07:40:28;;;;;;;24.30;7.25;;;;;;;;;;4912144;28;20039;-73
2023/06/09 07:42:54;;;;;;;14.98;6.68;;;;;;;;;;4912331;28;20545;-72
2023/06/09 07:45:20;;;;;;;20.08;8.00;;;;;;;;;;4929420;28;20483;-72
2023/06/09 07:47:46;;;;;;;21.27;6.95;;;;;;;;;;4927094;28;20134;-72
2023/06/09 07:50:12;;;;;;;24.88;7.18;;;;;;;;;;4929161;28;20053;-71
2023/06/09 07:52:39;;;;;;;12.88;6.68;;;;;;;;;;4926400;28;20126;-72
2023/06/09 07:55:06;;;;;;;24.88;7.70;;;;;;;;;;4927494;28;20050;-72
2023/06/09 07:57:33;;;;;;;15.95;6.88;;;;;;;;;;4921096;28;20047;-72
2023/06/09 07:59:59;;;;;;;20.67;7.03;;;;;;;;;;4923587;28;20054;-72
2023/06/09 08:02:25;;;;;;;22.77;6.97;;;;;;;;;;4927019;28;20043;-72
2023/06/09 08:04:51;;;;;;;18.25;5.85;;;;;;;;;;4906673;28;20047;-73
2023/06/09 08:07:17;;;;;;;20.08;6.88;;;;;;;;;;4922836;28;20141;-72
2023/06/09 08:09:43;;;;;;;18.05;6.15;;;;;;;;;;4897348;28;20062;-73
2023/06/09 08:12:10;;;;;;;16.70;6.05;;;;;;;;;;4925002;28;20048;-72
2023/06/09 08:14:36;;;;;;;13.98;5.75;;;;;;;;;;4894172;28;20051;-73
2023/06/09 08:17:02;;;;;;;12.07;5.85;;;;;;;;;;4925223;28;20043;-69
2023/06/09 08:19:28;;;;;;;12.95;6.28;;;;;;;;;;4923715;28;20083;-69
2023/06/09 08:21:55;;;;;;;19.27;6.35;;;;;;;;;;4896212;28;20134;-69
2023/06/09 08:24:21;;;;;;;15.40;6.05;;;;;;;;;;4909766;28;20113;-68
2023/06/09 08:26:48;;;;;;;13.35;6.20;;;;;;;;;;4908459;28;20051;-68
2023/06/09 08:29:15;;;;;;;15.65;5.25;;;;;;;;;;4924050;28;20522;-71
2023/06/09 08:31:41;;;;;;;15.40;5.80;;;;;;;;;;4924845;28;20048;-72
2023/06/09 08:34:07;;;;;;;15.45;5.90;;;;;;;;;;4916863;28;20043;-72
2023/06/09 08:36:33;;;;;;;14.90;5.97;;;;;;;;;;4912082;28;20043;-72
2023/06/09 08:39:00;;;;;;;14.95;5.13;;;;;;;;;;4917323;28;20057;-71
2023/06/09 08:41:32;;;;;;;14.75;5.85;;;;;;;;;;4913156;28;20061;-71
2023/06/09 08:43:58;;;;;;;12.10;5.43;;;;;;;;;;4927728;28;20053;-72
2023/06/09 08:46:25;;;;;;;12.05;5.35;;;;;;;;;;4920230;28;20055;-72
2023/06/09 08:48:55;;;;;;;15.55;5.50;;;;;;;;;;4925970;28;20055;-72
2023/06/09 08:51:21;;;;;;;16.35;6.43;;;;;;;;;;4916246;28;20044;-73
2023/06/09 08:53:51;;;;;;;10.98;5.10;;;;;;;;;;4918228;28;20122;-72
2023/06/09 08:56:18;;;;;;;12.48;5.00;;;;;;;;;;4925015;28;20517;-73
2023/06/09 08:58:44;;;;;;;12.25;5.60;;;;;;;;;;4911932;28;20046;-73
2023/06/09 09:01:10;;;;;;;12.07;5.25;;;;;;;;;;4911177;28;20055;-72
2023/06/09 09:03:36;;;;;;;12.60;5.03;;;;;;;;;;4910699;28;20051;-73
2023/06/09 09:06:03;;;;;;;13.32;5.80;;;;;;;;;;4920051;28;20054;-72
2023/06/09 09:08:29;;;;;;;13.93;5.63;;;;;;;;;;4918831;28;20048;-72
2023/06/09 09:10:55;;;;;;;9.93;5.10;;;;;;;;;;4917447;28;20154;-72
2023/06/09 09:13:24;;;;;;;15.85;5.20;;;;;;;;;;4917439;28;20046;-71
2023/06/09 09:15:51;;;;;;;13.50;5.13;;;;;;;;;;4916528;28;20580;-72
2023/06/09 09:18:19;;;;;;;13.00;5.07;;;;;;;;;;4910137;28;20476;-72
2023/06/09 09:20:45;;;;;;;12.88;5.18;;;;;;;;;;4923860;28;20050;-72
2023/06/09 09:23:11;;;;;;;12.95;5.35;;;;;;;;;;4909544;28;20040;-72
2023/06/09 09:25:38;;;;;;;13.05;5.07;;;;;;;;;;4911629;28;20043;-72
2023/06/09 09:28:04;;;;;;;8.65;4.20;;;;;;;;;;4909174;28;20098;-72
2023/06/09 09:30:42;;;;;;;9.98;4.68;;;;;;;;;;4921739;28;20950;-72
2023/06/09 09:33:18;;;;;;;18.70;5.72;;;;;;;;;;4909336;28;20048;-72
2023/06/09 09:35:45;;;;;;;11.52;4.63;;;;;;;;;;4922641;28;20138;-71
2023/06/09 09:38:12;;;;;;;20.02;4.40;;;;;;;;;;4909888;28;20044;-73
2023/06/09 09:40:43;;;;;;;10.07;4.88;;;;;;;;;;4904935;28;20130;-73
2023/06/09 09:43:10;;;;;;;8.73;4.20;;;;;;;;;;4922053;28;20081;-72
2023/06/09 09:45:38;;;;;;;11.18;4.88;;;;;;;;;;4921934;28;20047;-72
2023/06/09 09:48:11;;;;;;;8.45;4.30;;;;;;;;;;4908193;29;20078;-71
2023/06/09 09:50:38;;;;;;;10.90;4.70;;;;;;;;;;4910536;29;20071;-72
2023/06/09 09:53:05;;;;;;;13.75;4.30;;;;;;;;;;4895462;29;20183;-70
2023/06/09 09:55:31;;;;;;;12.30;4.50;;;;;;;;;;4893132;29;20497;-70
2023/06/09 09:57:59;;;;;;;10.73;4.10;;;;;;;;;;4873448;29;21752;-70
2023/06/09 10:00:26;;;;;;;9.10;4.72;;;;;;;;;;4896192;29;20075;-71
2023/06/09 10:02:54;;;;;;;10.38;4.38;;;;;;;;;;4898539;29;20047;-70
2023/06/09 10:05:21;;;;;;;15.60;4.47;;;;;;;;;;4895981;29;20051;-72
2023/06/09 10:07:51;;;;;;;9.68;4.55;;;;;;;;;;4914420;29;20048;-71
2023/06/09 10:10:18;;;;;;;10.38;4.45;;;;;;;;;;4895153;29;20670;-71
2023/06/09 10:12:45;;;;;;;11.38;4.93;;;;;;;;;;4895021;29;20147;-74
2023/06/09 10:15:13;;;;;;;8.30;3.85;;;;;;;;;;4894540;29;20059;-72
2023/06/09 10:17:39;;;;;;;10.10;4.30;;;;;;;;;;4896391;29;20044;-71
2023/06/09 10:20:08;;;;;;;11.15;4.82;;;;;;;;;;4916167;29;20074;-70
2023/06/09 10:22:34;;;;;;;10.52;4.53;;;;;;;;;;4916219;29;20058;-70
2023/06/09 10:25:01;;;;;;;9.75;4.50;;;;;;;;;;4914786;29;20552;-70
2023/06/09 10:27:27;;;;;;;9.05;4.65;;;;;;;;;;4904487;29;20082;-71
2023/06/09 10:29:53;;;;;;;11.27;4.78;;;;;;;;;;4897402;29;20062;-71
2023/06/09 10:32:23;;;;;;;10.07;4.70;;;;;;;;;;4888186;29;20110;-71
2023/06/09 10:34:50;;;;;;;9.88;4.30;;;;;;;;;;4916888;29;20043;-71
2023/06/09 10:37:40;;;;;;;12.50;4.90;;;;;;;;;;4915056;29;20035;-71
2023/06/09 10:40:26;;;;;;;14.77;4.72;;;;;;;;;;4897354;29;20572;-71
2023/06/09 10:43:11;;;;;;;11.32;4.50;;;;;;;;;;4846021;29;20138;-71
2023/06/09 10:46:07;;;;;;;11.82;4.45;;;;;;;;;;4911590;28;20040;-71
2023/06/09 10:48:41;;;;;;;9.20;5.00;;;;;;;;;;4902975;28;20047;-71
2023/06/09 10:51:29;;;;;;;10.70;4.32;;;;;;;;;;4905642;29;20056;-71
2023/06/09 10:54:12;;;;;;;10.02;4.50;;;;;;;;;;4919971;28;20332;-71
2023/06/09 10:56:52;;;;;;;9.60;4.20;;;;;;;;;;4913071;28;20447;-72
2023/06/09 10:59:30;;;;;;;16.65;4.53;;;;;;;;;;4910886;28;20402;-71
2023/06/09 11:02:05;;;;;;;16.63;4.65;;;;;;;;;;4913491;28;20562;-72
2023/06/09 11:04:43;;;;;;;12.50;4.22;;;;;;;;;;4931488;28;20874;-71
2023/06/09 11:07:12;;;;;;;15.15;4.75;;;;;;;;;;4916593;28;20131;-71
2023/06/09 11:09:39;;;;;;;9.38;4.20;;;;;;;;;;4929847;28;20049;-71
2023/06/09 11:12:08;;;;;;;8.60;4.50;;;;;;;;;;4907393;28;20130;-71
2023/06/09 11:14:47;;;;;;;8.02;4.05;;;;;;;;;;4929345;28;20062;-72
2023/06/09 11:17:16;;;;;;;12.02;4.18;;;;;;;;;;4931758;28;20143;-71
2023/06/09 11:19:42;;;;;;;11.57;4.15;;;;;;;;;;4929233;28;20086;-71
2023/06/09 11:22:12;;;;;;;13.27;5.20;;;;;;;;;;4927908;28;20484;-71
2023/06/09 11:24:51;;;;;;;9.75;4.38;;;;;;;;;;4932056;28;20047;-71
2023/06/09 11:27:21;;;;;;;12.20;4.40;;;;;;;;;;4931354;28;20070;-72
2023/06/09 11:30:06;;;;;;;11.95;4.20;;;;;;;;;;4927260;28;20480;-72
2023/06/09 11:32:50;;;;;;;11.07;4.95;;;;;;;;;;4931588;28;20571;-71
2023/06/09 11:35:26;;;;;;;15.55;4.43;;;;;;;;;;4916436;28;20105;-71
2023/06/09 11:37:52;;;;;;;18.35;5.25;;;;;;;;;;4916969;28;20779;-70
2023/06/09 11:40:19;;;;;;;9.07;4.57;;;;;;;;;;4917325;28;20087;-72
2023/06/09 11:42:46;;;;;;;15.40;5.40;;;;;;;;;;4928434;28;20051;-72
2023/06/09 11:45:13;;;;;;;10.75;4.82;;;;;;;;;;4926235;28;20047;-71
2023/06/09 11:47:43;;;;;;;11.00;5.15;;;;;;;;;;4896793;28;20112;-71
2023/06/09 11:50:12;;;;;;;12.30;4.25;;;;;;;;;;4929012;28;20055;-72
2023/06/09 11:52:38;;;;;;;16.08;5.20;;;;;;;;;;4925074;28;20131;-71
2023/06/09 11:55:05;;;;;;;10.70;5.22;;;;;;;;;;4901866;28;20992;-72
2023/06/09 11:57:35;;;;;;;15.15;4.63;;;;;;;;;;4926723;28;20459;-71
2023/06/09 12:00:14;;;;;;;13.95;5.05;;;;;;;;;;4912630;28;20127;-70
2023/06/09 12:02:45;;;;;;;10.75;4.53;;;;;;;;;;4912503;28;20055;-72
2023/06/09 12:05:12;;;;;;;12.82;5.22;;;;;;;;;;4925691;28;20058;-71
2023/06/09 12:07:38;;;;;;;12.75;4.57;;;;;;;;;;4911258;28;20051;-79
2023/06/09 12:10:04;;;;;;;11.43;5.28;;;;;;;;;;4918248;28;20113;-74
2023/06/09 12:12:30;;;;;;;9.10;4.47;;;;;;;;;;4916552;28;20051;-75
2023/06/09 12:14:57;;;;;;;11.13;5.07;;;;;;;;;;4930983;28;20495;-75
2023/06/09 12:17:23;;;;;;;15.82;5.05;;;;;;;;;;4921646;28;20051;-78
2023/06/09 12:19:51;;;;;;;14.27;5.18;;;;;;;;;;4904263;28;20050;-68
2023/06/09 12:22:17;;;;;;;14.88;5.40;;;;;;;;;;4930817;28;20448;-68
2023/06/09 12:24:44;;;;;;;12.48;5.38;;;;;;;;;;4914673;28;20069;-68
2023/06/09 12:27:13;;;;;;;11.75;5.25;;;;;;;;;;4916755;28;20054;-68
2023/06/09 12:29:40;;;;;;;14.23;5.13;;;;;;;;;;4932685;28;20050;-68
2023/06/09 12:32:08;;;;;;;12.15;5.15;;;;;;;;;;4931294;28;20050;-68
2023/06/09 12:34:34;;;;;;;11.15;5.22;;;;;;;;;;4916529;28;20173;-68
2023/06/09 12:37:04;;;;;;;14.02;5.38;;;;;;;;;;4931422;28;20097;-68
2023/06/09 12:39:32;;;;;;;11.10;4.97;;;;;;;;;;4931654;28;20048;-68
2023/06/09 12:41:58;;;;;;;17.20;6.15;;;;;;;;;;4932089;28;20595;-68
2023/06/09 12:44:25;;;;;;;14.77;5.85;;;;;;;;;;4915427;28;20599;-68
2023/06/09 12:46:55;;;;;;;12.32;5.70;;;;;;;;;;4911718;29;20122;-67
2023/06/09 12:49:32;;;;;;;13.02;5.93;;;;;;;;;;4931861;28;20090;-68
2023/06/09 12:51:58;;;;;;;13.80;5.43;;;;;;;;;;4933421;28;20051;-68
2023/06/09 12:54:25;;;;;;;10.52;5.20;;;;;;;;;;4932859;28;20044;-68
2023/06/09 12:56:51;;;;;;;14.73;5.45;;;;;;;;;;4911467;28;20054;-68
2023/06/09 12:59:18;;;;;;;13.30;5.30;;;;;;;;;;4932810;28;20039;-68
2023/06/09 13:01:47;;;;;;;14.48;5.35;;;;;;;;;;4933561;28;20054;-68
2023/06/09 13:04:14;;;;;;;16.85;6.07;;;;;;;;;;4933672;28;20058;-68
2023/06/09 13:06:40;;;;;;;11.95;5.55;;;;;;;;;;4933374;28;20047;-68
2023/06/09 13:09:06;;;;;;;8.88;5.63;;;;;;;;;;4933050;28;20451;-68
2023/06/09 13:11:32;;;;;;;18.27;5.85;;;;;;;;;;4933854;28;20408;-67
2023/06/09 13:13:58;;;;;;;12.68;5.63;;;;;;;;;;4932890;28;20194;-67
2023/06/09 13:16:25;;;;;;;16.50;5.70;;;;;;;;;;4933275;28;20424;-67
2023/06/09 13:18:51;;;;;;;13.13;5.63;;;;;;;;;;4933806;28;20069;-68
2023/06/09 13:21:17;;;;;;;13.20;5.72;;;;;;;;;;4916752;28;20050;-68
2023/06/09 13:23:43;;;;;;;11.60;5.10;;;;;;;;;;4933050;28;20043;-67
2023/06/09 13:26:10;;;;;;;15.35;6.00;;;;;;;;;;4933414;28;20051;-68
2023/06/09 13:28:36;;;;;;;12.60;5.35;;;;;;;;;;4934417;28;20071;-68
2023/06/09 13:31:03;;;;;;;13.32;5.15;;;;;;;;;;4910558;28;20185;-67
2023/06/09 13:33:29;;;;;;;9.43;4.93;;;;;;;;;;4916116;28;20138;-68
2023/06/09 13:35:56;;;;;;;14.20;4.78;;;;;;;;;;4905388;28;20070;-68
2023/06/09 13:38:22;;;;;;;14.55;5.10;;;;;;;;;;4937719;28;20043;-68
2023/06/09 13:40:49;;;;;;;13.77;5.32;;;;;;;;;;4937895;28;20054;-68
2023/06/09 13:43:16;;;;;;;12.32;5.47;;;;;;;;;;4937477;28;20193;-67
2023/06/09 13:45:42;;;;;;;13.20;4.70;;;;;;;;;;4936566;28;20630;-68
2023/06/09 13:48:09;;;;;;;12.60;4.80;;;;;;;;;;4937271;28;20047;-68
2023/06/09 13:50:35;;;;;;;10.10;4.60;;;;;;;;;;4937841;28;20050;-68
2023/06/09 13:53:02;;;;;;;14.05;4.53;;;;;;;;;;4938389;28;20139;-68
2023/06/09 13:55:28;;;;;;;10.00;4.43;;;;;;;;;;4910843;28;20044;-68
2023/06/09 13:57:55;;;;;;;16.98;5.03;;;;;;;;;;4916481;28;20042;-68
2023/06/09 14:00:21;;;;;;;14.70;5.60;;;;;;;;;;4915462;28;20574;-68
2023/06/09 14:02:47;;;;;;;16.58;4.60;;;;;;;;;;4928491;28;20043;-68
2023/06/09 14:05:13;;;;;;;18.75;5.28;;;;;;;;;;4927902;28;20470;-68
2023/06/09 14:07:41;;;;;;;12.77;5.57;;;;;;;;;;4932307;28;20239;-68
2023/06/09 14:10:08;;;;;;;8.50;4.15;;;;;;;;;;4917463;28;20136;-68
2023/06/09 14:12:34;;;;;;;12.80;4.80;;;;;;;;;;4932128;28;20051;-68
2023/06/09 14:15:00;;;;;;;13.35;4.20;;;;;;;;;;4916080;28;20499;-68
2023/06/09 14:17:26;;;;;;;15.48;4.95;;;;;;;;;;4933779;28;20043;-68
2023/06/09 14:19:55;;;;;;;11.32;4.68;;;;;;;;;;4933434;28;20051;-68
2023/06/09 14:22:22;;;;;;;13.05;5.05;;;;;;;;;;4916492;28;20047;-68
2023/06/09 14:24:48;;;;;;;11.32;4.63;;;;;;;;;;4934481;28;20385;-68
2023/06/09 14:27:14;;;;;;;12.10;4.57;;;;;;;;;;4915358;28;20055;-68
2023/06/09 14:29:40;;;;;;;11.05;4.55;;;;;;;;;;4913211;28;20047;-68
2023/06/09 14:32:07;;;;;;;10.95;4.72;;;;;;;;;;4932311;28;20191;-68
2023/06/09 14:34:33;;;;;;;9.30;4.60;;;;;;;;;;4934427;28;20081;-68